Time;durP1;ratioP1;P1;durP2;ratioP2;P2;SDS_P1;SDS_P2;PMS_P1;PMS_P2;Temp;Humidity;BMP_temperature;BMP_pressure;BME280_temperature;BME280_humidity;BME280_pressure;Samples;Min_cycle;Max_cycle;Signal;HPM_P1;HPM_P2
2024/02/06 00:02:23;;;;;;;5.70;3.35;;;10.70;99.90;;;;;;5037455;28;20083;-36
2024/02/06 00:04:49;;;;;;;4.97;3.70;;;10.70;99.90;;;;;;5038228;28;20025;-36
2024/02/06 00:07:14;;;;;;;5.93;3.80;;;10.70;99.90;;;;;;5041499;28;20546;-35
2024/02/06 00:09:40;;;;;;;6.10;4.22;;;10.70;99.90;;;;;;5038416;28;20025;-35
2024/02/06 00:12:09;;;;;;;5.90;3.70;;;10.70;99.90;;;;;;5040443;28;20060;-33
2024/02/06 00:14:35;;;;;;;4.90;4.25;;;10.70;99.90;;;;;;5042014;28;20577;-33
2024/02/06 00:17:00;;;;;;;6.00;3.65;;;10.70;99.90;;;;;;5041796;28;20028;-34
2024/02/06 00:19:26;;;;;;;5.10;4.45;;;10.70;99.90;;;;;;5042033;28;20025;-34
2024/02/06 00:21:51;;;;;;;6.35;3.95;;;10.70;99.90;;;;;;5042070;28;20364;-36
2024/02/06 00:24:17;;;;;;;4.93;3.75;;;10.60;99.90;;;;;;5041272;28;20099;-34
2024/02/06 00:26:42;;;;;;;5.63;4.45;;;10.60;99.90;;;;;;5041075;28;20033;-35
2024/02/06 00:29:08;;;;;;;6.22;4.40;;;10.60;99.90;;;;;;5042179;28;20111;-36
2024/02/06 00:31:34;;;;;;;4.53;4.13;;;10.60;99.90;;;;;;5042544;28;20449;-34
2024/02/06 00:33:59;;;;;;;6.47;4.65;;;10.60;99.90;;;;;;5042083;28;20025;-39
2024/02/06 00:36:25;;;;;;;5.53;3.85;;;10.60;99.90;;;;;;5042081;28;20047;-31
2024/02/06 00:38:50;;;;;;;5.93;4.53;;;10.60;99.90;;;;;;5042017;28;20044;-36
2024/02/06 00:41:19;;;;;;;8.13;4.47;;;10.60;99.90;;;;;;5040103;28;20039;-36
2024/02/06 00:43:45;;;;;;;5.47;4.15;;;10.70;99.90;;;;;;5041612;28;20029;-36
2024/02/06 00:46:10;;;;;;;10.85;5.20;;;10.70;99.90;;;;;;5042018;28;20029;-34
2024/02/06 00:48:36;;;;;;;7.45;4.93;;;10.60;99.90;;;;;;5041003;28;20545;-36
2024/02/06 00:51:01;;;;;;;8.18;4.55;;;10.60;99.90;;;;;;5041456;28;20025;-33
2024/02/06 00:53:28;;;;;;;5.60;4.57;;;10.60;99.90;;;;;;5040989;28;20029;-36
2024/02/06 00:55:53;;;;;;;6.13;4.50;;;10.60;99.90;;;;;;5039150;28;20824;-34
2024/02/06 00:58:19;;;;;;;7.20;5.38;;;10.60;99.90;;;;;;5041086;28;20021;-36
2024/02/06 01:00:44;;;;;;;8.38;4.75;;;10.60;99.90;;;;;;5041247;28;20790;-32
2024/02/06 01:03:10;;;;;;;5.57;4.60;;;10.60;99.90;;;;;;5039895;28;20035;-36
2024/02/06 01:05:36;;;;;;;8.05;5.15;;;10.60;99.90;;;;;;5040505;28;20029;-37
2024/02/06 01:08:01;;;;;;;8.20;5.53;;;10.60;99.90;;;;;;5040034;28;20032;-34
2024/02/06 01:10:27;;;;;;;7.43;5.10;;;10.60;99.90;;;;;;5040696;28;20833;-34
2024/02/06 01:12:52;;;;;;;7.47;5.55;;;10.60;99.90;;;;;;5039443;28;20025;-36
2024/02/06 01:15:18;;;;;;;8.38;5.28;;;10.60;99.90;;;;;;5039938;28;20070;-31
2024/02/06 01:17:43;;;;;;;7.30;5.32;;;10.60;99.90;;;;;;5039385;28;20075;-36
2024/02/06 01:20:09;;;;;;;6.95;5.40;;;10.60;99.90;;;;;;5041126;28;20029;-32
2024/02/06 01:22:35;;;;;;;8.25;5.07;;;10.60;99.90;;;;;;5039878;28;20029;-35
2024/02/06 01:25:01;;;;;;;6.85;5.10;;;10.70;99.90;;;;;;5041071;28;20479;-35
2024/02/06 01:27:27;;;;;;;5.70;4.68;;;10.60;99.90;;;;;;5039387;28;20036;-34
2024/02/06 01:29:53;;;;;;;7.45;4.97;;;10.70;99.90;;;;;;5039624;28;20040;-34
2024/02/06 01:32:18;;;;;;;6.45;4.55;;;10.60;99.90;;;;;;5041459;28;20074;-37
2024/02/06 01:34:46;;;;;;;8.07;5.35;;;10.70;99.90;;;;;;5040842;28;20027;-36
2024/02/06 01:37:11;;;;;;;5.38;4.60;;;10.70;99.90;;;;;;5040159;28;20029;-34
2024/02/06 01:39:37;;;;;;;6.85;4.55;;;10.70;99.90;;;;;;5040724;28;20040;-37
2024/02/06 01:42:03;;;;;;;11.07;4.70;;;10.70;99.90;;;;;;5039798;28;20078;-35
2024/02/06 01:44:29;;;;;;;6.70;5.10;;;10.70;99.90;;;;;;5039968;28;20021;-36
2024/02/06 01:46:56;;;;;;;8.77;5.13;;;10.70;99.90;;;;;;5040894;28;20045;-37
2024/02/06 01:49:24;;;;;;;6.85;4.78;;;10.70;99.90;;;;;;5039974;28;20071;-37
2024/02/06 01:51:51;;;;;;;9.57;5.53;;;10.70;99.90;;;;;;5039979;28;20031;-36
2024/02/06 01:54:16;;;;;;;8.10;4.97;;;10.70;99.90;;;;;;5040075;28;20027;-35
2024/02/06 01:56:43;;;;;;;7.82;5.28;;;10.70;99.90;;;;;;5040309;28;20731;-31
2024/02/06 01:59:10;;;;;;;5.22;4.70;;;10.70;99.90;;;;;;5038404;28;20024;-38
2024/02/06 02:01:35;;;;;;;8.48;5.10;;;10.70;99.90;;;;;;5040036;28;20118;-37
2024/02/06 02:04:01;;;;;;;9.10;4.95;;;10.70;99.90;;;;;;5039869;28;20765;-32
2024/02/06 02:06:28;;;;;;;6.72;4.57;;;10.70;99.90;;;;;;5038859;28;20488;-35
2024/02/06 02:08:54;;;;;;;5.55;4.00;;;10.70;99.90;;;;;;5040002;28;20059;-35
2024/02/06 02:11:19;;;;;;;6.22;4.07;;;10.80;99.90;;;;;;5038906;28;20758;-37
2024/02/06 02:13:46;;;;;;;11.55;4.63;;;10.80;99.90;;;;;;5038530;28;20424;-35
2024/02/06 02:16:12;;;;;;;8.38;5.07;;;10.70;99.90;;;;;;5039546;28;20025;-36
2024/02/06 02:18:37;;;;;;;7.22;4.50;;;10.70;99.90;;;;;;5038763;28;20501;-37
2024/02/06 02:21:13;;;;;;;5.68;4.68;;;10.70;99.90;;;;;;5037607;28;20159;-34
2024/02/06 02:23:42;;;;;;;6.25;3.80;;;10.80;99.90;;;;;;5039380;28;20021;-36
2024/02/06 02:26:10;;;;;;;7.25;4.20;;;10.80;99.90;;;;;;5034716;28;20025;-37
2024/02/06 02:28:41;;;;;;;6.65;4.65;;;10.70;99.90;;;;;;5037290;28;20044;-36
2024/02/06 02:31:08;;;;;;;10.40;4.47;;;10.70;99.90;;;;;;5038653;28;20028;-35
2024/02/06 02:33:35;;;;;;;6.00;4.10;;;10.70;99.90;;;;;;5039038;28;20029;-36
2024/02/06 02:36:04;;;;;;;5.22;3.55;;;10.70;99.90;;;;;;5039390;28;20024;-34
2024/02/06 02:38:37;;;;;;;8.73;4.82;;;10.70;99.90;;;;;;5039575;28;20029;-35
2024/02/06 02:41:03;;;;;;;7.30;3.80;;;10.80;99.90;;;;;;5038387;28;20053;-36
2024/02/06 02:43:29;;;;;;;5.88;3.85;;;10.80;99.90;;;;;;5038156;28;20091;-36
2024/02/06 02:45:58;;;;;;;11.02;3.80;;;10.70;99.90;;;;;;5038347;28;20816;-36
2024/02/06 02:48:24;;;;;;;7.78;3.85;;;10.80;99.90;;;;;;5038223;28;20044;-35
2024/02/06 02:50:49;;;;;;;6.82;3.58;;;10.80;99.90;;;;;;5038827;28;20013;-36
2024/02/06 02:53:15;;;;;;;7.13;4.00;;;10.80;99.90;;;;;;5024167;28;20056;-36
2024/02/06 02:55:40;;;;;;;6.07;3.13;;;10.80;99.90;;;;;;5028638;28;20468;-36
2024/02/06 02:58:06;;;;;;;7.50;3.40;;;10.80;99.90;;;;;;5037847;28;20099;-34
2024/02/06 03:00:34;;;;;;;9.27;3.40;;;10.80;99.90;;;;;;5038019;28;20037;-35
2024/02/06 03:02:59;;;;;;;7.60;3.33;;;10.80;99.90;;;;;;5037907;28;20484;-36
2024/02/06 03:05:25;;;;;;;4.63;3.03;;;10.80;99.90;;;;;;5039049;28;20029;-37
2024/02/06 03:07:50;;;;;;;8.07;2.75;;;10.90;99.90;;;;;;5037800;28;20048;-34
2024/02/06 03:10:19;;;;;;;8.23;3.47;;;10.90;99.90;;;;;;5038142;28;20029;-31
2024/02/06 03:12:44;;;;;;;5.55;3.17;;;10.90;99.90;;;;;;5038909;28;20021;-34
2024/02/06 03:15:10;;;;;;;6.68;3.13;;;10.90;99.90;;;;;;5037187;28;20410;-31
2024/02/06 03:17:36;;;;;;;10.20;3.53;;;10.90;99.90;;;;;;5038641;28;20551;-35
2024/02/06 03:20:04;;;;;;;10.10;3.70;;;11.00;99.90;;;;;;5038585;28;20503;-36
2024/02/06 03:22:32;;;;;;;6.43;3.22;;;10.90;99.90;;;;;;5038651;28;20041;-35
2024/02/06 03:24:59;;;;;;;9.43;2.78;;;11.00;99.90;;;;;;5038776;28;20025;-35
2024/02/06 03:27:25;;;;;;;5.85;3.40;;;11.00;99.90;;;;;;5038302;28;20040;-37
2024/02/06 03:29:51;;;;;;;8.13;3.30;;;11.00;99.90;;;;;;5035811;28;20017;-36
2024/02/06 03:32:16;;;;;;;4.85;2.30;;;11.00;99.90;;;;;;5037165;28;20144;-36
2024/02/06 03:34:42;;;;;;;6.55;3.42;;;11.00;99.90;;;;;;5038250;28;20025;-36
2024/02/06 03:37:08;;;;;;;7.53;2.70;;;11.00;99.90;;;;;;5038363;28;20021;-35
2024/02/06 03:39:33;;;;;;;7.80;3.15;;;11.00;99.90;;;;;;5039830;28;20025;-36
2024/02/06 03:41:59;;;;;;;7.57;2.75;;;11.00;99.90;;;;;;5042726;28;20108;-34
2024/02/06 03:44:25;;;;;;;7.63;3.58;;;11.00;99.90;;;;;;5041380;28;20032;-36
2024/02/06 03:46:50;;;;;;;4.90;2.90;;;11.10;99.90;;;;;;5042637;28;20024;-36
2024/02/06 03:49:16;;;;;;;6.93;2.78;;;11.00;99.90;;;;;;5041445;28;20124;-34
2024/02/06 03:51:41;;;;;;;8.35;3.00;;;11.00;99.90;;;;;;5041831;28;20029;-37
2024/02/06 03:54:07;;;;;;;7.35;3.40;;;11.00;99.90;;;;;;5042437;28;20028;-32
2024/02/06 03:56:32;;;;;;;6.55;3.83;;;11.00;99.90;;;;;;5042263;28;20029;-35
2024/02/06 03:58:58;;;;;;;4.65;2.95;;;11.00;99.90;;;;;;5040479;28;20488;-38
2024/02/06 04:01:24;;;;;;;6.07;3.20;;;11.00;99.90;;;;;;5034706;28;20504;-35
2024/02/06 04:03:49;;;;;;;9.02;3.47;;;10.90;99.90;;;;;;5041565;28;20079;-36
2024/02/06 04:06:15;;;;;;;5.70;3.80;;;10.90;99.90;;;;;;5042555;28;20498;-34
2024/02/06 04:08:42;;;;;;;4.28;3.60;;;10.90;99.90;;;;;;5041609;28;20025;-35
2024/02/06 04:11:09;;;;;;;7.70;3.78;;;10.90;99.90;;;;;;5041709;28;20029;-34
2024/02/06 04:13:35;;;;;;;5.85;3.75;;;10.90;99.90;;;;;;5042612;28;20112;-35
2024/02/06 04:16:01;;;;;;;5.43;4.00;;;10.90;99.90;;;;;;5041807;28;20205;-36
2024/02/06 04:18:27;;;;;;;6.28;3.92;;;10.90;99.90;;;;;;5040067;28;20684;-35
2024/02/06 04:20:52;;;;;;;6.60;3.47;;;10.90;99.90;;;;;;5041316;28;20788;-36
2024/02/06 04:23:18;;;;;;;5.55;3.55;;;10.80;99.90;;;;;;5041661;28;20638;-37
2024/02/06 04:25:44;;;;;;;5.43;3.55;;;10.80;99.90;;;;;;5041050;28;20428;-35
2024/02/06 04:28:09;;;;;;;8.57;4.40;;;10.90;99.90;;;;;;5040711;28;20044;-35
2024/02/06 04:30:38;;;;;;;6.97;3.30;;;10.80;99.90;;;;;;5040347;28;20403;-36
2024/02/06 04:33:04;;;;;;;4.30;2.88;;;10.80;99.90;;;;;;5040640;28;20029;-36
2024/02/06 04:35:30;;;;;;;5.72;3.38;;;10.90;99.90;;;;;;5041795;28;20087;-37
2024/02/06 04:37:56;;;;;;;5.00;3.38;;;10.80;99.90;;;;;;5040604;28;20639;-37
2024/02/06 04:40:22;;;;;;;3.97;3.05;;;10.80;99.90;;;;;;5038794;28;20032;-34
2024/02/06 04:42:47;;;;;;;5.13;3.92;;;10.80;99.90;;;;;;5042184;28;20064;-36
2024/02/06 04:45:13;;;;;;;5.78;4.32;;;10.80;99.90;;;;;;5039086;28;20131;-35
2024/02/06 04:47:39;;;;;;;8.13;4.20;;;10.80;99.90;;;;;;5041181;28;20116;-36
2024/02/06 04:50:05;;;;;;;6.57;3.80;;;10.80;99.90;;;;;;5040291;28;20108;-37
2024/02/06 04:52:32;;;;;;;5.40;3.83;;;10.70;99.90;;;;;;5040644;28;20040;-36
2024/02/06 04:54:58;;;;;;;6.78;4.18;;;10.70;99.90;;;;;;5040052;28;20024;-37
2024/02/06 04:57:24;;;;;;;5.45;4.20;;;10.80;99.90;;;;;;5040940;28;20032;-36
2024/02/06 04:59:49;;;;;;;8.38;3.47;;;10.70;99.90;;;;;;5039111;28;20105;-36
2024/02/06 05:02:15;;;;;;;7.63;4.00;;;10.70;99.90;;;;;;5039767;28;20384;-36
2024/02/06 05:04:41;;;;;;;6.22;3.65;;;10.70;99.90;;;;;;5041663;28;20036;-36
2024/02/06 05:07:07;;;;;;;7.38;4.18;;;10.70;99.90;;;;;;5040074;28;20519;-36
2024/02/06 05:09:32;;;;;;;7.28;4.10;;;10.70;99.90;;;;;;5039890;28;20047;-38
2024/02/06 05:12:01;;;;;;;6.35;3.60;;;10.70;99.90;;;;;;5041121;28;20036;-37
2024/02/06 05:14:28;;;;;;;4.93;3.30;;;10.70;99.90;;;;;;5039334;28;20039;-36
2024/02/06 05:16:54;;;;;;;6.28;3.90;;;10.70;99.90;;;;;;5040737;28;20567;-38
2024/02/06 05:19:20;;;;;;;7.00;4.05;;;10.70;99.90;;;;;;5039889;28;20097;-34
2024/02/06 05:21:46;;;;;;;6.13;3.45;;;10.60;99.90;;;;;;5040157;28;20182;-37
2024/02/06 05:24:11;;;;;;;6.32;4.38;;;10.60;99.90;;;;;;5040877;28;20025;-33
2024/02/06 05:26:37;;;;;;;9.27;3.75;;;10.70;99.90;;;;;;5040713;28;20387;-35
2024/02/06 05:29:05;;;;;;;6.20;3.75;;;10.60;99.90;;;;;;5039243;28;20112;-35
2024/02/06 05:31:31;;;;;;;5.63;3.55;;;10.60;99.90;;;;;;5041247;28;20033;-35
2024/02/06 05:33:58;;;;;;;8.77;3.60;;;10.70;99.90;;;;;;5041026;28;20037;-36
2024/02/06 05:36:24;;;;;;;6.80;3.80;;;10.70;99.90;;;;;;5040003;28;20408;-37
2024/02/06 05:38:50;;;;;;;5.30;3.88;;;10.70;99.90;;;;;;5040300;28;20028;-39
2024/02/06 05:41:17;;;;;;;6.35;3.90;;;10.70;99.90;;;;;;5039167;28;20025;-38
2024/02/06 05:43:43;;;;;;;5.20;2.72;;;10.70;99.90;;;;;;5040744;28;20032;-35
2024/02/06 05:46:08;;;;;;;5.03;3.65;;;10.70;99.90;;;;;;5039761;28;20037;-38
2024/02/06 05:48:34;;;;;;;7.63;3.95;;;10.70;99.90;;;;;;5040493;28;20145;-37
2024/02/06 05:51:01;;;;;;;6.65;3.80;;;10.70;99.90;;;;;;5037111;28;20408;-35
2024/02/06 05:53:27;;;;;;;8.43;4.43;;;10.70;99.90;;;;;;5040508;28;20037;-38
2024/02/06 05:55:53;;;;;;;6.68;4.40;;;10.70;99.90;;;;;;5040456;28;20048;-38
2024/02/06 05:58:19;;;;;;;5.93;3.80;;;10.70;99.90;;;;;;5039523;28;20629;-39
2024/02/06 06:00:44;;;;;;;7.05;3.83;;;10.70;99.90;;;;;;5038503;28;20792;-37
2024/02/06 06:03:10;;;;;;;6.43;3.80;;;10.70;99.90;;;;;;5039379;28;20032;-36
2024/02/06 06:05:36;;;;;;;8.57;4.35;;;10.60;99.90;;;;;;5039020;28;20037;-38
2024/02/06 06:08:02;;;;;;;6.20;3.83;;;10.60;99.90;;;;;;5039133;28;20036;-38
2024/02/06 06:10:27;;;;;;;4.97;3.78;;;10.60;99.90;;;;;;5038180;28;20153;-37
2024/02/06 06:12:53;;;;;;;6.93;3.80;;;10.60;99.90;;;;;;5039023;28;20472;-36
2024/02/06 06:15:19;;;;;;;5.63;3.58;;;10.70;99.90;;;;;;5038550;28;20029;-36
2024/02/06 06:17:44;;;;;;;5.25;4.07;;;10.60;99.90;;;;;;5038860;28;20867;-37
2024/02/06 06:20:10;;;;;;;4.65;3.50;;;10.60;99.90;;;;;;5039213;28;20021;-39
2024/02/06 06:22:36;;;;;;;6.78;4.30;;;10.60;99.90;;;;;;5039224;28;20384;-36
2024/02/06 06:25:01;;;;;;;9.40;3.92;;;10.60;99.90;;;;;;5038337;28;20361;-35
2024/02/06 06:27:27;;;;;;;7.55;3.88;;;10.60;99.90;;;;;;5039586;28;20320;-36
2024/02/06 06:29:53;;;;;;;5.95;3.42;;;10.70;99.90;;;;;;5038750;28;20110;-33
2024/02/06 06:32:18;;;;;;;5.75;3.80;;;10.60;99.90;;;;;;5046908;28;20693;-36
2024/02/06 06:34:44;;;;;;;7.22;3.95;;;10.60;99.90;;;;;;5038815;28;20040;-37
2024/02/06 06:37:09;;;;;;;6.28;3.90;;;10.60;99.90;;;;;;5037399;28;20048;-33
2024/02/06 06:39:35;;;;;;;5.00;3.92;;;10.60;99.90;;;;;;5039210;28;20613;-33
2024/02/06 06:42:05;;;;;;;6.18;3.88;;;10.60;99.90;;;;;;5039308;28;20033;-33
2024/02/06 06:44:30;;;;;;;6.75;3.85;;;10.60;99.90;;;;;;5036120;28;20050;-36
2024/02/06 06:46:58;;;;;;;9.68;4.68;;;10.60;99.90;;;;;;5036678;28;20037;-32
2024/02/06 06:49:23;;;;;;;5.18;3.88;;;10.60;99.90;;;;;;5033776;28;20094;-35
2024/02/06 06:51:49;;;;;;;7.97;4.07;;;10.60;99.90;;;;;;5038541;28;20468;-37
2024/02/06 06:54:15;;;;;;;7.97;3.78;;;10.60;99.90;;;;;;5036636;28;20032;-34
2024/02/06 06:56:40;;;;;;;5.35;3.30;;;10.50;99.90;;;;;;5037634;28;20116;-35
2024/02/06 06:59:06;;;;;;;4.63;3.45;;;10.50;99.90;;;;;;5038315;28;20094;-35
2024/02/06 07:01:31;;;;;;;6.07;3.42;;;10.60;99.90;;;;;;5036531;28;20021;-36
2024/02/06 07:03:57;;;;;;;6.95;3.83;;;10.60;99.90;;;;;;5038203;28;20489;-36
2024/02/06 07:06:22;;;;;;;7.53;3.40;;;10.60;99.90;;;;;;5038357;28;20052;-36
2024/02/06 07:08:49;;;;;;;4.60;3.33;;;10.60;99.90;;;;;;5037974;28;20795;-35
2024/02/06 07:11:15;;;;;;;7.88;3.08;;;10.60;99.90;;;;;;5038407;28;20112;-37
2024/02/06 07:13:41;;;;;;;6.22;3.92;;;10.60;99.90;;;;;;5037070;28;20029;-35
2024/02/06 07:16:07;;;;;;;4.35;3.03;;;10.60;99.90;;;;;;5038243;28;20074;-36
2024/02/06 07:18:32;;;;;;;7.80;3.28;;;10.60;99.90;;;;;;5035128;28;20021;-37
2024/02/06 07:20:58;;;;;;;5.20;3.20;;;10.70;99.90;;;;;;5035714;28;20513;-36
2024/02/06 07:23:24;;;;;;;6.78;2.60;;;10.70;99.90;;;;;;5036290;28;20028;-36
2024/02/06 07:25:49;;;;;;;5.28;3.20;;;10.60;99.90;;;;;;5037895;28;20041;-33
2024/02/06 07:28:15;;;;;;;5.28;3.10;;;10.70;99.90;;;;;;5035991;28;20770;-36
2024/02/06 07:30:40;;;;;;;4.80;2.75;;;10.70;99.90;;;;;;5038190;28;20025;-35
2024/02/06 07:33:06;;;;;;;4.75;2.95;;;10.70;99.90;;;;;;5024984;28;20056;-36
2024/02/06 07:35:32;;;;;;;5.53;2.40;;;10.70;99.90;;;;;;5037240;28;20028;-35
2024/02/06 07:37:57;;;;;;;4.70;2.80;;;10.70;99.90;;;;;;5038291;28;20029;-36
2024/02/06 07:40:23;;;;;;;5.57;3.13;;;10.60;99.90;;;;;;5037666;28;20440;-33
2024/02/06 07:42:52;;;;;;;6.30;3.10;;;10.60;99.90;;;;;;5037346;28;20849;-34
2024/02/06 07:45:18;;;;;;;3.30;2.65;;;10.70;99.90;;;;;;5037082;28;20036;-37
2024/02/06 07:47:43;;;;;;;5.75;2.85;;;10.70;99.90;;;;;;5037996;28;20037;-36
2024/02/06 07:50:09;;;;;;;3.88;2.80;;;10.70;99.90;;;;;;5036638;28;20875;-36
2024/02/06 07:52:35;;;;;;;4.70;2.83;;;10.70;99.90;;;;;;5037647;28;20112;-38
2024/02/06 07:55:00;;;;;;;5.80;3.17;;;10.60;99.90;;;;;;5037589;28;20020;-36
2024/02/06 07:57:26;;;;;;;5.75;2.80;;;10.60;99.90;;;;;;5037408;28;20037;-37
2024/02/06 07:59:52;;;;;;;6.03;3.13;;;10.60;99.90;;;;;;5038579;28;20093;-35
2024/02/06 08:02:21;;;;;;;5.88;2.80;;;10.60;99.90;;;;;;5037469;28;20021;-37
2024/02/06 08:04:47;;;;;;;4.90;3.00;;;10.70;99.90;;;;;;5038510;28;20025;-37
2024/02/06 08:07:16;;;;;;;7.65;3.65;;;10.60;99.90;;;;;;5037689;28;20057;-33
2024/02/06 08:09:42;;;;;;;7.28;3.28;;;10.60;99.90;;;;;;5039391;28;20665;-37
2024/02/06 08:12:08;;;;;;;4.85;2.85;;;10.60;99.90;;;;;;5036472;28;20028;-37
2024/02/06 08:14:34;;;;;;;6.13;2.88;;;10.60;99.90;;;;;;5038215;28;20021;-39
2024/02/06 08:17:00;;;;;;;6.05;3.90;;;10.60;99.90;;;;;;5037558;28;20033;-35
2024/02/06 08:19:25;;;;;;;9.10;4.20;;;10.60;99.90;;;;;;5036916;28;20025;-35
2024/02/06 08:21:51;;;;;;;7.55;3.80;;;10.60;99.90;;;;;;5036824;28;20021;-37
2024/02/06 08:24:16;;;;;;;5.45;3.30;;;10.60;99.90;;;;;;5036540;28;20106;-37
2024/02/06 08:26:43;;;;;;;5.50;3.55;;;10.60;99.90;;;;;;5039586;28;20020;-36
2024/02/06 08:29:09;;;;;;;4.60;3.30;;;10.50;99.90;;;;;;5041459;28;20548;-37
2024/02/06 08:31:34;;;;;;;4.40;2.97;;;10.50;99.90;;;;;;5041365;28;20571;-35
2024/02/06 08:34:00;;;;;;;3.47;2.95;;;10.50;99.90;;;;;;5041854;28;20874;-37
2024/02/06 08:36:26;;;;;;;4.72;2.90;;;10.50;99.90;;;;;;5040962;28;20040;-35
2024/02/06 08:38:51;;;;;;;6.07;3.05;;;10.60;99.90;;;;;;5041239;28;20021;-37
2024/02/06 08:41:17;;;;;;;4.15;2.95;;;10.60;99.90;;;;;;5041703;28;20036;-37
2024/02/06 08:43:42;;;;;;;5.20;3.05;;;10.60;99.90;;;;;;5037887;28;20051;-35
2024/02/06 08:46:08;;;;;;;5.10;3.05;;;10.60;99.90;;;;;;5040734;28;20041;-36
2024/02/06 08:48:33;;;;;;;5.90;3.22;;;10.60;99.90;;;;;;5040960;28;20226;-34
2024/02/06 08:50:59;;;;;;;8.52;3.58;;;10.60;99.90;;;;;;5041981;28;20036;-34
2024/02/06 08:53:25;;;;;;;4.60;3.00;;;10.60;99.90;;;;;;5040083;28;20032;-34
2024/02/06 08:55:51;;;;;;;4.13;3.08;;;10.70;99.90;;;;;;5040997;28;20036;-36
2024/02/06 08:58:17;;;;;;;8.77;3.05;;;10.60;99.90;;;;;;5041374;28;20463;-32
2024/02/06 09:00:42;;;;;;;6.45;3.45;;;10.70;99.90;;;;;;5040660;28;20755;-35
2024/02/06 09:03:08;;;;;;;8.98;3.10;;;10.70;99.90;;;;;;5041131;28;20040;-36
2024/02/06 09:05:34;;;;;;;5.82;3.22;;;10.70;99.90;;;;;;5040746;28;20047;-35
2024/02/06 09:08:00;;;;;;;6.43;2.95;;;10.70;99.90;;;;;;5039526;28;20656;-34
2024/02/06 09:10:26;;;;;;;4.78;2.90;;;10.80;99.90;;;;;;5040804;28;20029;-36
2024/02/06 09:12:51;;;;;;;7.38;3.17;;;10.80;99.90;;;;;;5040709;28;20025;-36
2024/02/06 09:15:22;;;;;;;8.88;3.05;;;10.80;99.90;;;;;;5040321;28;20086;-37
2024/02/06 09:17:48;;;;;;;8.32;3.08;;;10.90;99.90;;;;;;5041023;28;20029;-36
2024/02/06 09:20:14;;;;;;;8.77;3.38;;;10.90;99.90;;;;;;5039758;28;20028;-31
2024/02/06 09:22:40;;;;;;;10.25;3.53;;;11.00;99.90;;;;;;5040864;28;20025;-34
2024/02/06 09:25:06;;;;;;;8.18;3.17;;;11.00;99.90;;;;;;5036637;28;20033;-36
2024/02/06 09:27:33;;;;;;;8.65;3.25;;;11.10;99.90;;;;;;5040245;28;20344;-36
2024/02/06 09:29:58;;;;;;;5.85;2.35;;;11.10;99.90;;;;;;5040178;28;20040;-36
2024/02/06 09:32:24;;;;;;;6.68;2.50;;;11.10;99.90;;;;;;5040167;28;20021;-36
2024/02/06 09:34:51;;;;;;;6.85;2.85;;;11.20;99.90;;;;;;5038589;28;20582;-38
2024/02/06 09:37:17;;;;;;;5.55;2.45;;;11.20;99.90;;;;;;5039270;28;20021;-35
2024/02/06 09:39:43;;;;;;;6.75;2.38;;;11.20;99.90;;;;;;5040426;28;20036;-36
2024/02/06 09:42:09;;;;;;;9.25;2.70;;;11.20;99.90;;;;;;5039355;28;20022;-34
2024/02/06 09:44:35;;;;;;;5.35;2.28;;;11.30;99.90;;;;;;5039597;28;20116;-37
2024/02/06 09:47:02;;;;;;;6.75;2.63;;;11.40;99.90;;;;;;5040161;28;20025;-37
2024/02/06 09:49:28;;;;;;;7.32;2.25;;;11.40;99.90;;;;;;5039137;28;20028;-37
2024/02/06 09:51:54;;;;;;;6.97;2.30;;;11.50;99.90;;;;;;5040482;28;20057;-36
2024/02/06 09:54:24;;;;;;;9.13;2.85;;;11.60;99.90;;;;;;5039567;28;20028;-36
2024/02/06 09:56:53;;;;;;;8.48;2.60;;;11.60;99.90;;;;;;5040524;28;20697;-33
2024/02/06 09:59:20;;;;;;;7.50;2.50;;;11.70;99.90;;;;;;5039571;28;20078;-37
2024/02/06 10:01:46;;;;;;;6.43;2.70;;;11.80;99.90;;;;;;5029010;28;20021;-35
2024/02/06 10:04:18;;;;;;;6.70;1.98;;;11.80;99.90;;;;;;5039247;28;20041;-36
2024/02/06 10:06:47;;;;;;;6.10;2.53;;;11.90;99.90;;;;;;5040692;28;20052;-37
2024/02/06 10:09:17;;;;;;;6.97;2.35;;;11.90;99.90;;;;;;5040309;28;20127;-41
2024/02/06 10:11:42;;;;;;;7.53;2.40;;;12.00;99.90;;;;;;5036807;28;20031;-34
2024/02/06 10:14:08;;;;;;;6.32;2.50;;;12.00;99.90;;;;;;5040355;28;20628;-34
2024/02/06 10:16:34;;;;;;;5.70;1.90;;;12.00;99.90;;;;;;5040026;28;20450;-35
2024/02/06 10:19:00;;;;;;;3.53;1.58;;;12.10;99.90;;;;;;5040415;28;20056;-33
2024/02/06 10:21:30;;;;;;;5.72;2.25;;;12.00;99.90;;;;;;5040164;28;20025;-35
2024/02/06 10:24:01;;;;;;;6.47;2.25;;;12.10;99.90;;;;;;5040326;28;20035;-37
2024/02/06 10:26:27;;;;;;;6.65;2.50;;;12.10;99.90;;;;;;5039545;28;20440;-37
2024/02/06 10:29:06;;;;;;;4.50;2.20;;;12.20;99.90;;;;;;5040464;28;20033;-37
2024/02/06 10:31:31;;;;;;;8.90;2.63;;;12.20;99.90;;;;;;5039151;28;20037;-36
2024/02/06 10:34:11;;;;;;;6.90;2.50;;;12.20;99.90;;;;;;5039734;28;20785;-35
2024/02/06 10:36:37;;;;;;;6.10;2.58;;;12.20;99.90;;;;;;5039881;28;20056;-36
2024/02/06 10:39:04;;;;;;;8.02;2.88;;;12.30;99.90;;;;;;5038653;28;20194;-35
2024/02/06 10:41:29;;;;;;;8.43;2.90;;;12.30;99.90;;;;;;5039034;28;20750;-37
2024/02/06 10:43:55;;;;;;;6.30;2.65;;;12.40;99.90;;;;;;5039070;28;20515;-37
2024/02/06 10:46:24;;;;;;;5.57;2.35;;;12.40;99.90;;;;;;5038685;28;20021;-36
2024/02/06 10:49:05;;;;;;;5.35;2.10;;;12.50;99.90;;;;;;5038919;28;20652;-36
2024/02/06 10:51:32;;;;;;;7.85;2.55;;;12.50;99.90;;;;;;5038610;28;20025;-36
2024/02/06 10:53:58;;;;;;;7.55;2.53;;;12.60;99.90;;;;;;5039142;28;20060;-36
2024/02/06 10:56:25;;;;;;;6.15;2.42;;;12.60;99.90;;;;;;5038892;28;20512;-35
2024/02/06 10:58:57;;;;;;;6.55;2.30;;;12.70;99.90;;;;;;5038937;28;20557;-35
2024/02/06 11:01:29;;;;;;;8.45;2.60;;;12.70;99.90;;;;;;5039503;28;20098;-36
2024/02/06 11:04:04;;;;;;;9.90;3.38;;;12.70;99.90;;;;;;5028547;28;20903;-34
2024/02/06 11:06:56;;;;;;;7.65;2.42;;;12.80;99.90;;;;;;5037442;28;20483;-35
2024/02/06 11:09:25;;;;;;;8.02;2.78;;;12.80;99.90;;;;;;5031205;28;20053;-34
2024/02/06 11:11:54;;;;;;;13.73;2.92;;;12.90;99.90;;;;;;5039519;28;20545;-35
2024/02/06 11:14:21;;;;;;;7.20;2.70;;;12.80;99.90;;;;;;5036288;28;20025;-36
2024/02/06 11:16:51;;;;;;;8.32;2.67;;;12.90;99.90;;;;;;5040211;28;20083;-36
2024/02/06 11:19:26;;;;;;;10.93;3.33;;;12.90;99.90;;;;;;5039324;28;20116;-36
2024/02/06 11:22:00;;;;;;;7.38;2.63;;;12.90;99.90;;;;;;5039215;28;20036;-37
2024/02/06 11:24:30;;;;;;;9.05;3.17;;;12.90;99.90;;;;;;5038820;28;20036;-37
2024/02/06 11:26:57;;;;;;;6.97;2.72;;;12.90;99.90;;;;;;5037985;28;20072;-35
2024/02/06 11:29:23;;;;;;;9.45;3.45;;;12.90;99.90;;;;;;5037358;28;20029;-35
2024/02/06 11:31:49;;;;;;;6.50;2.58;;;12.90;99.90;;;;;;5038981;28;20079;-36
2024/02/06 11:34:18;;;;;;;6.80;2.50;;;12.90;99.90;;;;;;5037537;28;20200;-38
2024/02/06 11:36:44;;;;;;;8.68;2.78;;;12.90;99.90;;;;;;5039900;28;20049;-34
2024/02/06 11:39:15;;;;;;;11.60;3.10;;;12.90;99.90;;;;;;5036353;28;20642;-36
2024/02/06 11:41:44;;;;;;;7.03;2.47;;;12.90;99.90;;;;;;5037168;28;20186;-37
2024/02/06 11:44:12;;;;;;;5.32;2.72;;;12.80;99.90;;;;;;5038727;28;20025;-36
2024/02/06 11:46:48;;;;;;;8.27;2.47;;;12.80;99.90;;;;;;5039072;28;20029;-36
2024/02/06 11:49:21;;;;;;;6.47;2.58;;;12.80;99.90;;;;;;5038044;28;20094;-38
2024/02/06 11:51:56;;;;;;;7.95;2.25;;;12.80;99.90;;;;;;5019468;28;20040;-37
2024/02/06 11:54:22;;;;;;;6.82;2.10;;;12.80;99.90;;;;;;5034031;28;20120;-37
2024/02/06 11:56:48;;;;;;;5.75;2.35;;;12.80;99.90;;;;;;5037651;28;20546;-37
2024/02/06 11:59:14;;;;;;;5.95;1.60;;;12.80;99.90;;;;;;5037688;28;20025;-36
2024/02/06 12:01:41;;;;;;;4.57;1.80;;;12.80;99.90;;;;;;5041820;28;20678;-36
2024/02/06 12:04:07;;;;;;;5.32;2.00;;;12.80;99.90;;;;;;5041635;28;20347;-35
2024/02/06 12:06:33;;;;;;;5.20;1.90;;;12.80;99.90;;;;;;5041389;28;20576;-36
2024/02/06 12:09:06;;;;;;;4.78;2.05;;;12.80;99.90;;;;;;5041882;28;20055;-37
2024/02/06 12:11:38;;;;;;;5.68;1.95;;;12.80;99.90;;;;;;5042048;28;20350;-37
2024/02/06 12:14:04;;;;;;;8.27;1.73;;;12.80;99.90;;;;;;5042259;28;20033;-38
2024/02/06 12:16:30;;;;;;;4.72;1.65;;;12.80;99.90;;;;;;5041318;28;20102;-35
2024/02/06 12:18:57;;;;;;;5.13;1.90;;;12.80;99.90;;;;;;5042827;28;20063;-37
2024/02/06 12:21:26;;;;;;;7.15;2.45;;;12.80;99.90;;;;;;5042627;28;20127;-37
2024/02/06 12:24:05;;;;;;;5.90;1.70;;;12.80;99.90;;;;;;5040881;28;20041;-37
2024/02/06 12:26:32;;;;;;;3.30;1.50;;;12.80;99.90;;;;;;5041513;28;20391;-38
2024/02/06 12:29:03;;;;;;;7.15;2.08;;;12.90;99.90;;;;;;5039874;28;20753;-36
2024/02/06 12:31:33;;;;;;;5.55;1.92;;;12.80;99.90;;;;;;5040667;28;20070;-38
2024/02/06 12:34:00;;;;;;;5.63;2.47;;;12.90;99.90;;;;;;5041840;28;20048;-36
2024/02/06 12:36:26;;;;;;;6.65;2.67;;;12.80;99.90;;;;;;5041030;28;20044;-35
2024/02/06 12:38:55;;;;;;;4.60;1.90;;;12.80;99.90;;;;;;5041398;28;20136;-34
2024/02/06 12:41:22;;;;;;;5.88;2.10;;;12.80;99.90;;;;;;5040261;28;20025;-37
2024/02/06 12:43:52;;;;;;;6.88;2.50;;;12.90;99.90;;;;;;5041963;28;20041;-34